sensor_id;sensor_type;location;lat;lon;timestamp;P1;durP1;ratioP1;P2;durP2;ratioP2
37701;SDS011;23548;51.196;6.838;2023-10-08T00:01:28;8.25;;;5.22;;
37701;SDS011;23548;51.196;6.838;2023-10-08T00:03:58;9.35;;;5.68;;
37701;SDS011;23548;51.196;6.838;2023-10-08T00:06:25;9.20;;;5.22;;
37701;SDS011;23548;51.196;6.838;2023-10-08T00:08:52;10.40;;;5.28;;
37701;SDS011;23548;51.196;6.838;2023-10-08T00:11:25;14.45;;;5.60;;
37701;SDS011;23548;51.196;6.838;2023-10-08T00:13:54;7.93;;;5.13;;
37701;SDS011;23548;51.196;6.838;2023-10-08T00:16:21;10.80;;;5.13;;
37701;SDS011;23548;51.196;6.838;2023-10-08T00:18:47;9.40;;;5.47;;
37701;SDS011;23548;51.196;6.838;2023-10-08T00:21:19;11.27;;;5.80;;
37701;SDS011;23548;51.196;6.838;2023-10-08T00:23:51;8.90;;;5.30;;
37701;SDS011;23548;51.196;6.838;2023-10-08T00:26:22;14.70;;;5.45;;
37701;SDS011;23548;51.196;6.838;2023-10-08T00:28:59;9.38;;;5.28;;
37701;SDS011;23548;51.196;6.838;2023-10-08T00:31:31;12.07;;;6.03;;
37701;SDS011;23548;51.196;6.838;2023-10-08T00:34:03;11.15;;;5.35;;
37701;SDS011;23548;51.196;6.838;2023-10-08T00:36:36;8.60;;;5.25;;
37701;SDS011;23548;51.196;6.838;2023-10-08T00:39:03;10.02;;;5.53;;
37701;SDS011;23548;51.196;6.838;2023-10-08T00:41:33;10.00;;;5.28;;
37701;SDS011;23548;51.196;6.838;2023-10-08T00:43:59;12.18;;;5.30;;
37701;SDS011;23548;51.196;6.838;2023-10-08T00:46:25;9.68;;;5.72;;
37701;SDS011;23548;51.196;6.838;2023-10-08T00:49:02;13.25;;;5.93;;
37701;SDS011;23548;51.196;6.838;2023-10-08T00:51:49;9.55;;;5.28;;
37701;SDS011;23548;51.196;6.838;2023-10-08T00:54:26;12.63;;;6.00;;
37701;SDS011;23548;51.196;6.838;2023-10-08T00:56:53;8.82;;;4.93;;
37701;SDS011;23548;51.196;6.838;2023-10-08T00:59:23;10.63;;;5.15;;
37701;SDS011;23548;51.196;6.838;2023-10-08T01:01:50;14.52;;;5.57;;
37701;SDS011;23548;51.196;6.838;2023-10-08T01:04:20;12.88;;;5.55;;
37701;SDS011;23548;51.196;6.838;2023-10-08T01:06:54;11.23;;;5.05;;
37701;SDS011;23548;51.196;6.838;2023-10-08T01:09:25;12.75;;;4.97;;
37701;SDS011;23548;51.196;6.838;2023-10-08T01:15:01;14.60;;;5.85;;
37701;SDS011;23548;51.196;6.838;2023-10-08T01:17:42;9.98;;;5.13;;
37701;SDS011;23548;51.196;6.838;2023-10-08T01:20:23;12.60;;;5.85;;
37701;SDS011;23548;51.196;6.838;2023-10-08T01:23:16;9.07;;;5.75;;
37701;SDS011;23548;51.196;6.838;2023-10-08T01:25:45;9.68;;;5.82;;
37701;SDS011;23548;51.196;6.838;2023-10-08T01:28:21;12.45;;;5.97;;
37701;SDS011;23548;51.196;6.838;2023-10-08T01:30:57;9.95;;;5.53;;
37701;SDS011;23548;51.196;6.838;2023-10-08T01:33:29;9.82;;;4.95;;
37701;SDS011;23548;51.196;6.838;2023-10-08T01:35:55;10.35;;;5.82;;
37701;SDS011;23548;51.196;6.838;2023-10-08T01:38:29;9.07;;;5.93;;
37701;SDS011;23548;51.196;6.838;2023-10-08T01:40:56;14.27;;;5.72;;
37701;SDS011;23548;51.196;6.838;2023-10-08T01:43:22;14.32;;;6.03;;
37701;SDS011;23548;51.196;6.838;2023-10-08T01:45:48;9.95;;;6.00;;
37701;SDS011;23548;51.196;6.838;2023-10-08T01:48:16;11.52;;;5.50;;
37701;SDS011;23548;51.196;6.838;2023-10-08T01:50:48;9.90;;;5.57;;
37701;SDS011;23548;51.196;6.838;2023-10-08T01:53:14;11.80;;;5.40;;
37701;SDS011;23548;51.196;6.838;2023-10-08T01:55:41;11.85;;;5.50;;
37701;SDS011;23548;51.196;6.838;2023-10-08T01:58:18;9.48;;;5.50;;
37701;SDS011;23548;51.196;6.838;2023-10-08T02:00:45;10.57;;;5.47;;
37701;SDS011;23548;51.196;6.838;2023-10-08T02:03:12;13.40;;;5.45;;
37701;SDS011;23548;51.196;6.838;2023-10-08T02:05:43;10.27;;;5.50;;
37701;SDS011;23548;51.196;6.838;2023-10-08T02:08:10;10.07;;;5.55;;
37701;SDS011;23548;51.196;6.838;2023-10-08T02:10:41;12.68;;;6.15;;
37701;SDS011;23548;51.196;6.838;2023-10-08T02:13:08;12.30;;;5.50;;
37701;SDS011;23548;51.196;6.838;2023-10-08T02:15:35;7.93;;;5.13;;
37701;SDS011;23548;51.196;6.838;2023-10-08T02:18:02;13.10;;;5.90;;
37701;SDS011;23548;51.196;6.838;2023-10-08T02:20:29;8.85;;;5.72;;
37701;SDS011;23548;51.196;6.838;2023-10-08T02:22:54;12.27;;;6.57;;
37701;SDS011;23548;51.196;6.838;2023-10-08T02:25:20;9.15;;;5.15;;
37701;SDS011;23548;51.196;6.838;2023-10-08T02:27:48;9.52;;;5.57;;
37701;SDS011;23548;51.196;6.838;2023-10-08T02:30:14;11.52;;;5.70;;
37701;SDS011;23548;51.196;6.838;2023-10-08T02:32:40;11.20;;;5.65;;
37701;SDS011;23548;51.196;6.838;2023-10-08T02:35:09;12.40;;;5.65;;
37701;SDS011;23548;51.196;6.838;2023-10-08T02:37:38;10.98;;;5.07;;
37701;SDS011;23548;51.196;6.838;2023-10-08T02:40:10;11.13;;;5.45;;
37701;SDS011;23548;51.196;6.838;2023-10-08T02:43:06;9.70;;;5.82;;
37701;SDS011;23548;51.196;6.838;2023-10-08T02:45:35;11.48;;;5.60;;
37701;SDS011;23548;51.196;6.838;2023-10-08T02:48:04;14.00;;;6.00;;
37701;SDS011;23548;51.196;6.838;2023-10-08T02:50:37;8.65;;;5.60;;
37701;SDS011;23548;51.196;6.838;2023-10-08T02:53:07;14.63;;;6.03;;
37701;SDS011;23548;51.196;6.838;2023-10-08T02:55:39;13.25;;;5.88;;
37701;SDS011;23548;51.196;6.838;2023-10-08T02:58:12;9.48;;;6.18;;
37701;SDS011;23548;51.196;6.838;2023-10-08T03:00:42;9.90;;;5.85;;
37701;SDS011;23548;51.196;6.838;2023-10-08T03:03:09;12.10;;;5.15;;
37701;SDS011;23548;51.196;6.838;2023-10-08T03:05:41;10.50;;;5.45;;
37701;SDS011;23548;51.196;6.838;2023-10-08T03:08:11;14.75;;;5.22;;
37701;SDS011;23548;51.196;6.838;2023-10-08T03:10:46;11.43;;;5.57;;
37701;SDS011;23548;51.196;6.838;2023-10-08T03:13:18;12.90;;;5.88;;
37701;SDS011;23548;51.196;6.838;2023-10-08T03:15:44;11.70;;;5.82;;
37701;SDS011;23548;51.196;6.838;2023-10-08T03:18:25;10.38;;;4.68;;
37701;SDS011;23548;51.196;6.838;2023-10-08T03:21:00;13.95;;;5.80;;
37701;SDS011;23548;51.196;6.838;2023-10-08T03:23:30;11.65;;;5.70;;
37701;SDS011;23548;51.196;6.838;2023-10-08T03:26:01;11.57;;;6.10;;
37701;SDS011;23548;51.196;6.838;2023-10-08T03:28:53;12.80;;;5.40;;
37701;SDS011;23548;51.196;6.838;2023-10-08T03:31:23;10.55;;;5.43;;
37701;SDS011;23548;51.196;6.838;2023-10-08T03:34:10;12.35;;;5.25;;
37701;SDS011;23548;51.196;6.838;2023-10-08T03:36:43;12.32;;;5.68;;
37701;SDS011;23548;51.196;6.838;2023-10-08T03:39:10;9.82;;;5.50;;
37701;SDS011;23548;51.196;6.838;2023-10-08T03:41:38;10.90;;;5.35;;
37701;SDS011;23548;51.196;6.838;2023-10-08T03:44:05;11.38;;;5.20;;
37701;SDS011;23548;51.196;6.838;2023-10-08T03:46:38;12.13;;;5.88;;
37701;SDS011;23548;51.196;6.838;2023-10-08T03:49:07;7.57;;;5.25;;
37701;SDS011;23548;51.196;6.838;2023-10-08T03:51:48;10.63;;;5.57;;
37701;SDS011;23548;51.196;6.838;2023-10-08T03:54:19;10.32;;;5.20;;
37701;SDS011;23548;51.196;6.838;2023-10-08T03:56:59;12.05;;;5.70;;
37701;SDS011;23548;51.196;6.838;2023-10-08T03:59:26;10.57;;;5.13;;
37701;SDS011;23548;51.196;6.838;2023-10-08T04:01:55;10.85;;;5.28;;
37701;SDS011;23548;51.196;6.838;2023-10-08T04:04:35;9.20;;;5.45;;
37701;SDS011;23548;51.196;6.838;2023-10-08T04:07:20;11.30;;;5.30;;
37701;SDS011;23548;51.196;6.838;2023-10-08T04:10:00;15.20;;;5.68;;
37701;SDS011;23548;51.196;6.838;2023-10-08T04:12:35;12.88;;;5.35;;
37701;SDS011;23548;51.196;6.838;2023-10-08T04:15:15;9.02;;;5.25;;
37701;SDS011;23548;51.196;6.838;2023-10-08T04:17:42;10.15;;;5.30;;
37701;SDS011;23548;51.196;6.838;2023-10-08T04:20:16;10.10;;;5.50;;
37701;SDS011;23548;51.196;6.838;2023-10-08T04:23:00;11.05;;;5.40;;
37701;SDS011;23548;51.196;6.838;2023-10-08T04:25:28;14.15;;;5.80;;
37701;SDS011;23548;51.196;6.838;2023-10-08T04:27:55;10.38;;;5.32;;
37701;SDS011;23548;51.196;6.838;2023-10-08T04:30:25;11.18;;;5.90;;
37701;SDS011;23548;51.196;6.838;2023-10-08T04:33:01;11.80;;;6.05;;
37701;SDS011;23548;51.196;6.838;2023-10-08T04:35:35;17.05;;;5.63;;
37701;SDS011;23548;51.196;6.838;2023-10-08T04:38:03;13.13;;;5.65;;
37701;SDS011;23548;51.196;6.838;2023-10-08T04:40:33;8.52;;;5.43;;
37701;SDS011;23548;51.196;6.838;2023-10-08T04:43:13;12.88;;;5.57;;
37701;SDS011;23548;51.196;6.838;2023-10-08T04:45:53;11.98;;;5.35;;
37701;SDS011;23548;51.196;6.838;2023-10-08T04:48:28;14.82;;;5.18;;
37701;SDS011;23548;51.196;6.838;2023-10-08T04:50:57;12.70;;;5.97;;
37701;SDS011;23548;51.196;6.838;2023-10-08T04:53:32;8.55;;;5.50;;
37701;SDS011;23548;51.196;6.838;2023-10-08T04:56:06;12.98;;;5.63;;
37701;SDS011;23548;51.196;6.838;2023-10-08T04:58:46;11.00;;;4.95;;
37701;SDS011;23548;51.196;6.838;2023-10-08T05:01:16;11.52;;;5.57;;
37701;SDS011;23548;51.196;6.838;2023-10-08T05:03:46;12.80;;;5.30;;
37701;SDS011;23548;51.196;6.838;2023-10-08T05:06:31;14.23;;;5.30;;
37701;SDS011;23548;51.196;6.838;2023-10-08T05:09:03;11.80;;;5.45;;
37701;SDS011;23548;51.196;6.838;2023-10-08T05:11:46;11.73;;;5.53;;
37701;SDS011;23548;51.196;6.838;2023-10-08T05:14:15;12.35;;;5.13;;
37701;SDS011;23548;51.196;6.838;2023-10-08T05:16:56;8.00;;;4.95;;
37701;SDS011;23548;51.196;6.838;2023-10-08T05:19:28;15.15;;;5.20;;
37701;SDS011;23548;51.196;6.838;2023-10-08T05:22:10;12.20;;;5.38;;
37701;SDS011;23548;51.196;6.838;2023-10-08T05:24:50;15.80;;;5.25;;
37701;SDS011;23548;51.196;6.838;2023-10-08T05:27:34;13.95;;;5.63;;
37701;SDS011;23548;51.196;6.838;2023-10-08T05:30:03;13.40;;;5.50;;
37701;SDS011;23548;51.196;6.838;2023-10-08T05:32:40;10.95;;;5.72;;
37701;SDS011;23548;51.196;6.838;2023-10-08T05:35:26;9.38;;;5.15;;
37701;SDS011;23548;51.196;6.838;2023-10-08T05:38:04;15.05;;;5.63;;
37701;SDS011;23548;51.196;6.838;2023-10-08T05:40:42;12.70;;;5.40;;
37701;SDS011;23548;51.196;6.838;2023-10-08T05:43:24;10.90;;;5.55;;
37701;SDS011;23548;51.196;6.838;2023-10-08T05:46:12;10.73;;;5.88;;
37701;SDS011;23548;51.196;6.838;2023-10-08T05:49:04;19.35;;;5.90;;
37701;SDS011;23548;51.196;6.838;2023-10-08T05:51:33;12.48;;;6.25;;
37701;SDS011;23548;51.196;6.838;2023-10-08T05:54:13;11.38;;;5.63;;
37701;SDS011;23548;51.196;6.838;2023-10-08T05:56:55;13.18;;;6.20;;
37701;SDS011;23548;51.196;6.838;2023-10-08T05:59:30;10.55;;;5.82;;
37701;SDS011;23548;51.196;6.838;2023-10-08T06:02:05;18.73;;;6.93;;
37701;SDS011;23548;51.196;6.838;2023-10-08T06:04:51;16.85;;;6.38;;
37701;SDS011;23548;51.196;6.838;2023-10-08T06:10:25;13.13;;;6.35;;
37701;SDS011;23548;51.196;6.838;2023-10-08T06:15:52;14.35;;;6.40;;
37701;SDS011;23548;51.196;6.838;2023-10-08T06:20:57;14.65;;;6.32;;
37701;SDS011;23548;51.196;6.838;2023-10-08T06:23:34;16.20;;;6.47;;
37701;SDS011;23548;51.196;6.838;2023-10-08T06:26:04;12.07;;;6.25;;
37701;SDS011;23548;51.196;6.838;2023-10-08T06:28:39;12.60;;;5.75;;
37701;SDS011;23548;51.196;6.838;2023-10-08T06:31:06;10.38;;;5.60;;
37701;SDS011;23548;51.196;6.838;2023-10-08T06:33:37;13.98;;;6.07;;
37701;SDS011;23548;51.196;6.838;2023-10-08T06:36:04;15.75;;;7.00;;
37701;SDS011;23548;51.196;6.838;2023-10-08T06:38:41;11.80;;;5.88;;
37701;SDS011;23548;51.196;6.838;2023-10-08T06:41:09;16.90;;;6.28;;
37701;SDS011;23548;51.196;6.838;2023-10-08T06:43:36;13.85;;;5.50;;
37701;SDS011;23548;51.196;6.838;2023-10-08T06:46:03;12.18;;;5.70;;
37701;SDS011;23548;51.196;6.838;2023-10-08T06:48:32;8.90;;;5.72;;
37701;SDS011;23548;51.196;6.838;2023-10-08T06:50:59;11.20;;;5.45;;
37701;SDS011;23548;51.196;6.838;2023-10-08T06:53:33;16.85;;;5.80;;
37701;SDS011;23548;51.196;6.838;2023-10-08T06:55:59;9.05;;;5.03;;
37701;SDS011;23548;51.196;6.838;2023-10-08T06:58:29;10.18;;;5.53;;
37701;SDS011;23548;51.196;6.838;2023-10-08T07:00:59;13.48;;;6.68;;
37701;SDS011;23548;51.196;6.838;2023-10-08T07:03:29;13.57;;;6.53;;
37701;SDS011;23548;51.196;6.838;2023-10-08T07:05:56;11.57;;;5.75;;
37701;SDS011;23548;51.196;6.838;2023-10-08T07:08:31;11.05;;;5.45;;
37701;SDS011;23548;51.196;6.838;2023-10-08T07:10:58;12.75;;;5.57;;
37701;SDS011;23548;51.196;6.838;2023-10-08T07:13:36;12.95;;;5.93;;
37701;SDS011;23548;51.196;6.838;2023-10-08T07:16:04;9.05;;;5.38;;
37701;SDS011;23548;51.196;6.838;2023-10-08T07:18:36;14.80;;;6.30;;
37701;SDS011;23548;51.196;6.838;2023-10-08T07:21:02;14.40;;;6.00;;
37701;SDS011;23548;51.196;6.838;2023-10-08T07:23:29;10.40;;;6.32;;
37701;SDS011;23548;51.196;6.838;2023-10-08T07:26:01;12.48;;;5.97;;
37701;SDS011;23548;51.196;6.838;2023-10-08T07:28:36;11.02;;;5.72;;
37701;SDS011;23548;51.196;6.838;2023-10-08T07:31:05;15.40;;;5.80;;
37701;SDS011;23548;51.196;6.838;2023-10-08T07:33:41;14.43;;;6.07;;
37701;SDS011;23548;51.196;6.838;2023-10-08T07:36:09;8.70;;;5.72;;
37701;SDS011;23548;51.196;6.838;2023-10-08T07:38:42;11.90;;;6.03;;
37701;SDS011;23548;51.196;6.838;2023-10-08T07:41:11;12.02;;;6.07;;
37701;SDS011;23548;51.196;6.838;2023-10-08T07:43:39;12.57;;;6.18;;
37701;SDS011;23548;51.196;6.838;2023-10-08T07:46:07;14.23;;;5.75;;
37701;SDS011;23548;51.196;6.838;2023-10-08T07:48:34;13.65;;;5.82;;
37701;SDS011;23548;51.196;6.838;2023-10-08T07:51:00;13.82;;;5.82;;
37701;SDS011;23548;51.196;6.838;2023-10-08T07:53:27;19.13;;;6.32;;
37701;SDS011;23548;51.196;6.838;2023-10-08T07:56:05;14.50;;;6.25;;
37701;SDS011;23548;51.196;6.838;2023-10-08T07:58:32;12.02;;;5.93;;
37701;SDS011;23548;51.196;6.838;2023-10-08T08:01:02;13.10;;;6.13;;
37701;SDS011;23548;51.196;6.838;2023-10-08T08:03:31;15.48;;;6.18;;
37701;SDS011;23548;51.196;6.838;2023-10-08T08:06:01;12.18;;;6.68;;
37701;SDS011;23548;51.196;6.838;2023-10-08T08:08:31;13.98;;;6.32;;
37701;SDS011;23548;51.196;6.838;2023-10-08T08:11:01;12.40;;;6.40;;
37701;SDS011;23548;51.196;6.838;2023-10-08T08:13:35;15.20;;;6.75;;
37701;SDS011;23548;51.196;6.838;2023-10-08T08:16:01;24.50;;;7.00;;
37701;SDS011;23548;51.196;6.838;2023-10-08T08:18:43;19.88;;;7.05;;
37701;SDS011;23548;51.196;6.838;2023-10-08T08:21:10;19.77;;;7.03;;
37701;SDS011;23548;51.196;6.838;2023-10-08T08:23:43;20.33;;;7.47;;
37701;SDS011;23548;51.196;6.838;2023-10-08T08:26:13;14.25;;;6.78;;
37701;SDS011;23548;51.196;6.838;2023-10-08T08:28:52;12.95;;;6.38;;
37701;SDS011;23548;51.196;6.838;2023-10-08T08:31:22;17.58;;;6.63;;
37701;SDS011;23548;51.196;6.838;2023-10-08T08:33:52;16.45;;;6.68;;
37701;SDS011;23548;51.196;6.838;2023-10-08T08:36:21;15.15;;;7.60;;
37701;SDS011;23548;51.196;6.838;2023-10-08T08:38:52;19.50;;;7.07;;
37701;SDS011;23548;51.196;6.838;2023-10-08T08:41:21;20.70;;;7.53;;
37701;SDS011;23548;51.196;6.838;2023-10-08T08:43:49;12.77;;;6.93;;
37701;SDS011;23548;51.196;6.838;2023-10-08T08:46:33;17.35;;;6.82;;
37701;SDS011;23548;51.196;6.838;2023-10-08T08:49:06;17.42;;;7.07;;
37701;SDS011;23548;51.196;6.838;2023-10-08T08:51:33;13.00;;;7.10;;
37701;SDS011;23548;51.196;6.838;2023-10-08T08:54:00;15.30;;;7.20;;
37701;SDS011;23548;51.196;6.838;2023-10-08T08:56:32;18.45;;;7.78;;
37701;SDS011;23548;51.196;6.838;2023-10-08T08:59:06;16.85;;;7.60;;
37701;SDS011;23548;51.196;6.838;2023-10-08T09:01:36;21.08;;;7.63;;
37701;SDS011;23548;51.196;6.838;2023-10-08T09:04:04;19.58;;;8.73;;
37701;SDS011;23548;51.196;6.838;2023-10-08T09:06:36;21.52;;;8.55;;
37701;SDS011;23548;51.196;6.838;2023-10-08T09:09:05;17.83;;;7.82;;
37701;SDS011;23548;51.196;6.838;2023-10-08T09:11:50;21.60;;;8.23;;
37701;SDS011;23548;51.196;6.838;2023-10-08T09:14:20;21.10;;;8.25;;
37701;SDS011;23548;51.196;6.838;2023-10-08T09:16:48;19.88;;;7.90;;
37701;SDS011;23548;51.196;6.838;2023-10-08T09:19:15;19.60;;;9.43;;
37701;SDS011;23548;51.196;6.838;2023-10-08T09:22:05;23.02;;;9.00;;
37701;SDS011;23548;51.196;6.838;2023-10-08T09:24:34;27.95;;;10.57;;
37701;SDS011;23548;51.196;6.838;2023-10-08T09:27:02;26.08;;;10.27;;
37701;SDS011;23548;51.196;6.838;2023-10-08T09:29:29;27.92;;;10.43;;
37701;SDS011;23548;51.196;6.838;2023-10-08T09:31:56;32.15;;;11.55;;
37701;SDS011;23548;51.196;6.838;2023-10-08T09:34:26;28.35;;;10.55;;
37701;SDS011;23548;51.196;6.838;2023-10-08T09:36:55;29.63;;;12.00;;
37701;SDS011;23548;51.196;6.838;2023-10-08T09:39:22;25.77;;;10.70;;
37701;SDS011;23548;51.196;6.838;2023-10-08T09:41:55;30.02;;;11.50;;
37701;SDS011;23548;51.196;6.838;2023-10-08T09:44:22;25.10;;;10.88;;
37701;SDS011;23548;51.196;6.838;2023-10-08T09:46:53;26.00;;;11.57;;
37701;SDS011;23548;51.196;6.838;2023-10-08T09:49:32;25.48;;;11.25;;
37701;SDS011;23548;51.196;6.838;2023-10-08T09:52:07;24.10;;;11.00;;
37701;SDS011;23548;51.196;6.838;2023-10-08T09:54:37;28.02;;;10.50;;
37701;SDS011;23548;51.196;6.838;2023-10-08T09:57:12;29.20;;;11.63;;
37701;SDS011;23548;51.196;6.838;2023-10-08T09:59:39;25.67;;;11.68;;
37701;SDS011;23548;51.196;6.838;2023-10-08T10:02:06;26.05;;;11.45;;
37701;SDS011;23548;51.196;6.838;2023-10-08T10:04:35;25.05;;;10.90;;
37701;SDS011;23548;51.196;6.838;2023-10-08T10:07:09;23.33;;;10.48;;
37701;SDS011;23548;51.196;6.838;2023-10-08T10:09:42;25.02;;;10.40;;
37701;SDS011;23548;51.196;6.838;2023-10-08T10:12:10;33.88;;;11.80;;
37701;SDS011;23548;51.196;6.838;2023-10-08T10:14:43;26.73;;;12.00;;
37701;SDS011;23548;51.196;6.838;2023-10-08T10:17:19;33.33;;;12.35;;
37701;SDS011;23548;51.196;6.838;2023-10-08T10:19:53;30.55;;;12.32;;
37701;SDS011;23548;51.196;6.838;2023-10-08T10:22:29;35.08;;;12.38;;
37701;SDS011;23548;51.196;6.838;2023-10-08T10:24:57;31.60;;;12.23;;
37701;SDS011;23548;51.196;6.838;2023-10-08T10:27:25;34.42;;;13.57;;
37701;SDS011;23548;51.196;6.838;2023-10-08T10:29:53;36.83;;;13.18;;
37701;SDS011;23548;51.196;6.838;2023-10-08T10:32:34;38.38;;;12.98;;
37701;SDS011;23548;51.196;6.838;2023-10-08T10:35:00;31.50;;;11.50;;
37701;SDS011;23548;51.196;6.838;2023-10-08T10:37:30;36.60;;;13.35;;
37701;SDS011;23548;51.196;6.838;2023-10-08T10:40:07;33.03;;;12.90;;
37701;SDS011;23548;51.196;6.838;2023-10-08T10:42:38;36.20;;;13.45;;
37701;SDS011;23548;51.196;6.838;2023-10-08T10:45:12;34.90;;;12.88;;
37701;SDS011;23548;51.196;6.838;2023-10-08T10:47:59;33.13;;;12.82;;
37701;SDS011;23548;51.196;6.838;2023-10-08T10:50:39;36.72;;;13.88;;
37701;SDS011;23548;51.196;6.838;2023-10-08T10:53:35;35.95;;;12.95;;
37701;SDS011;23548;51.196;6.838;2023-10-08T10:56:22;42.42;;;13.90;;
37701;SDS011;23548;51.196;6.838;2023-10-08T10:59:05;34.35;;;12.80;;
37701;SDS011;23548;51.196;6.838;2023-10-08T11:01:51;28.73;;;12.55;;
37701;SDS011;23548;51.196;6.838;2023-10-08T11:04:20;34.72;;;12.57;;
37701;SDS011;23548;51.196;6.838;2023-10-08T11:06:54;30.95;;;12.50;;
37701;SDS011;23548;51.196;6.838;2023-10-08T11:09:27;32.28;;;13.13;;
37701;SDS011;23548;51.196;6.838;2023-10-08T11:12:04;31.83;;;13.65;;
37701;SDS011;23548;51.196;6.838;2023-10-08T11:14:43;35.75;;;14.93;;
37701;SDS011;23548;51.196;6.838;2023-10-08T11:17:12;39.17;;;15.55;;
37701;SDS011;23548;51.196;6.838;2023-10-08T11:19:45;34.05;;;14.93;;
37701;SDS011;23548;51.196;6.838;2023-10-08T11:22:14;38.42;;;16.10;;
37701;SDS011;23548;51.196;6.838;2023-10-08T11:24:44;37.42;;;15.18;;
37701;SDS011;23548;51.196;6.838;2023-10-08T11:27:17;41.33;;;15.77;;
37701;SDS011;23548;51.196;6.838;2023-10-08T11:29:54;43.20;;;16.50;;
37701;SDS011;23548;51.196;6.838;2023-10-08T11:32:25;39.67;;;16.33;;
37701;SDS011;23548;51.196;6.838;2023-10-08T11:34:55;38.53;;;15.98;;
37701;SDS011;23548;51.196;6.838;2023-10-08T11:37:31;35.38;;;15.82;;
37701;SDS011;23548;51.196;6.838;2023-10-08T11:40:01;36.55;;;15.45;;
37701;SDS011;23548;51.196;6.838;2023-10-08T11:42:43;39.47;;;15.90;;
37701;SDS011;23548;51.196;6.838;2023-10-08T11:45:09;39.55;;;17.27;;
37701;SDS011;23548;51.196;6.838;2023-10-08T11:48:06;41.90;;;18.10;;
37701;SDS011;23548;51.196;6.838;2023-10-08T11:50:47;49.05;;;17.35;;
37701;SDS011;23548;51.196;6.838;2023-10-08T11:53:15;39.53;;;17.05;;
37701;SDS011;23548;51.196;6.838;2023-10-08T11:55:44;41.33;;;18.00;;
37701;SDS011;23548;51.196;6.838;2023-10-08T11:58:13;39.05;;;17.00;;
37701;SDS011;23548;51.196;6.838;2023-10-08T12:00:43;40.03;;;17.27;;
37701;SDS011;23548;51.196;6.838;2023-10-08T12:03:15;46.80;;;18.00;;
37701;SDS011;23548;51.196;6.838;2023-10-08T12:05:44;36.17;;;17.30;;
37701;SDS011;23548;51.196;6.838;2023-10-08T12:08:17;48.13;;;18.85;;
37701;SDS011;23548;51.196;6.838;2023-10-08T12:10:46;42.63;;;17.83;;
37701;SDS011;23548;51.196;6.838;2023-10-08T12:13:13;45.50;;;18.23;;
37701;SDS011;23548;51.196;6.838;2023-10-08T12:15:41;39.67;;;16.45;;
37701;SDS011;23548;51.196;6.838;2023-10-08T12:18:09;39.88;;;16.80;;
37701;SDS011;23548;51.196;6.838;2023-10-08T12:20:51;37.42;;;16.27;;
37701;SDS011;23548;51.196;6.838;2023-10-08T12:23:17;36.60;;;17.05;;
37701;SDS011;23548;51.196;6.838;2023-10-08T12:25:57;43.72;;;17.35;;
37701;SDS011;23548;51.196;6.838;2023-10-08T12:28:25;40.83;;;18.45;;
37701;SDS011;23548;51.196;6.838;2023-10-08T12:30:53;43.55;;;17.45;;
37701;SDS011;23548;51.196;6.838;2023-10-08T12:33:21;44.00;;;17.30;;
37701;SDS011;23548;51.196;6.838;2023-10-08T12:35:49;44.88;;;17.50;;
37701;SDS011;23548;51.196;6.838;2023-10-08T12:38:21;36.28;;;17.67;;
37701;SDS011;23548;51.196;6.838;2023-10-08T12:40:50;45.55;;;18.73;;
37701;SDS011;23548;51.196;6.838;2023-10-08T12:43:23;54.70;;;18.75;;
37701;SDS011;23548;51.196;6.838;2023-10-08T12:45:52;43.83;;;17.73;;
37701;SDS011;23548;51.196;6.838;2023-10-08T12:48:19;45.22;;;18.50;;
37701;SDS011;23548;51.196;6.838;2023-10-08T12:50:47;40.28;;;17.55;;
37701;SDS011;23548;51.196;6.838;2023-10-08T12:53:19;46.33;;;18.50;;
37701;SDS011;23548;51.196;6.838;2023-10-08T12:56:07;44.75;;;17.27;;
37701;SDS011;23548;51.196;6.838;2023-10-08T12:58:40;39.72;;;17.58;;
37701;SDS011;23548;51.196;6.838;2023-10-08T13:01:09;41.33;;;17.73;;
37701;SDS011;23548;51.196;6.838;2023-10-08T13:03:38;38.85;;;16.85;;
37701;SDS011;23548;51.196;6.838;2023-10-08T13:06:10;38.70;;;15.80;;
37701;SDS011;23548;51.196;6.838;2023-10-08T13:08:47;33.75;;;16.17;;
37701;SDS011;23548;51.196;6.838;2023-10-08T13:11:21;43.38;;;16.63;;
37701;SDS011;23548;51.196;6.838;2023-10-08T13:13:51;34.83;;;15.48;;
37701;SDS011;23548;51.196;6.838;2023-10-08T13:16:19;38.15;;;15.32;;
37701;SDS011;23548;51.196;6.838;2023-10-08T13:18:46;34.40;;;15.18;;
37701;SDS011;23548;51.196;6.838;2023-10-08T13:21:12;34.33;;;14.63;;
37701;SDS011;23548;51.196;6.838;2023-10-08T13:23:38;38.30;;;15.63;;
37701;SDS011;23548;51.196;6.838;2023-10-08T13:26:04;39.60;;;15.75;;
37701;SDS011;23548;51.196;6.838;2023-10-08T13:28:32;34.55;;;15.35;;
37701;SDS011;23548;51.196;6.838;2023-10-08T13:31:00;42.45;;;16.38;;
37701;SDS011;23548;51.196;6.838;2023-10-08T13:33:34;38.03;;;14.88;;
37701;SDS011;23548;51.196;6.838;2023-10-08T13:36:03;40.28;;;15.98;;
37701;SDS011;23548;51.196;6.838;2023-10-08T13:38:35;39.65;;;15.93;;
37701;SDS011;23548;51.196;6.838;2023-10-08T13:41:02;33.78;;;15.38;;
37701;SDS011;23548;51.196;6.838;2023-10-08T13:43:31;40.25;;;15.35;;
37701;SDS011;23548;51.196;6.838;2023-10-08T13:46:05;36.40;;;15.00;;
37701;SDS011;23548;51.196;6.838;2023-10-08T13:48:33;35.67;;;14.40;;
37701;SDS011;23548;51.196;6.838;2023-10-08T13:51:01;35.55;;;15.05;;
37701;SDS011;23548;51.196;6.838;2023-10-08T13:53:31;38.60;;;15.65;;
37701;SDS011;23548;51.196;6.838;2023-10-08T13:55:58;36.17;;;14.38;;
37701;SDS011;23548;51.196;6.838;2023-10-08T13:58:29;45.63;;;15.52;;
37701;SDS011;23548;51.196;6.838;2023-10-08T14:00:56;38.85;;;14.43;;
37701;SDS011;23548;51.196;6.838;2023-10-08T14:03:25;30.52;;;14.60;;
37701;SDS011;23548;51.196;6.838;2023-10-08T14:05:56;33.92;;;14.23;;
37701;SDS011;23548;51.196;6.838;2023-10-08T14:08:28;39.03;;;15.75;;
37701;SDS011;23548;51.196;6.838;2023-10-08T14:10:55;35.13;;;14.77;;
37701;SDS011;23548;51.196;6.838;2023-10-08T14:13:28;31.98;;;14.30;;
37701;SDS011;23548;51.196;6.838;2023-10-08T14:15:56;34.28;;;15.57;;
37701;SDS011;23548;51.196;6.838;2023-10-08T14:18:23;36.97;;;15.27;;
37701;SDS011;23548;51.196;6.838;2023-10-08T14:20:53;33.13;;;15.05;;
37701;SDS011;23548;51.196;6.838;2023-10-08T14:23:22;28.98;;;14.90;;
37701;SDS011;23548;51.196;6.838;2023-10-08T14:25:50;27.92;;;13.48;;
37701;SDS011;23548;51.196;6.838;2023-10-08T14:28:20;29.33;;;14.13;;
37701;SDS011;23548;51.196;6.838;2023-10-08T14:31:05;38.05;;;15.20;;
37701;SDS011;23548;51.196;6.838;2023-10-08T14:33:32;28.17;;;14.43;;
37701;SDS011;23548;51.196;6.838;2023-10-08T14:36:07;33.08;;;13.65;;
37701;SDS011;23548;51.196;6.838;2023-10-08T14:38:52;29.38;;;12.98;;
37701;SDS011;23548;51.196;6.838;2023-10-08T14:41:36;29.42;;;14.27;;
37701;SDS011;23548;51.196;6.838;2023-10-08T14:44:20;32.72;;;13.75;;
37701;SDS011;23548;51.196;6.838;2023-10-08T14:46:46;37.25;;;14.60;;
37701;SDS011;23548;51.196;6.838;2023-10-08T14:49:12;31.85;;;14.88;;
37701;SDS011;23548;51.196;6.838;2023-10-08T14:51:38;33.03;;;14.70;;
37701;SDS011;23548;51.196;6.838;2023-10-08T14:54:05;36.60;;;14.23;;
37701;SDS011;23548;51.196;6.838;2023-10-08T14:56:33;32.03;;;15.98;;
37701;SDS011;23548;51.196;6.838;2023-10-08T14:59:02;34.15;;;14.68;;
37701;SDS011;23548;51.196;6.838;2023-10-08T15:01:29;35.13;;;15.02;;
37701;SDS011;23548;51.196;6.838;2023-10-08T15:03:58;33.55;;;14.45;;
37701;SDS011;23548;51.196;6.838;2023-10-08T15:06:29;34.10;;;14.77;;
37701;SDS011;23548;51.196;6.838;2023-10-08T15:08:58;29.50;;;13.93;;
37701;SDS011;23548;51.196;6.838;2023-10-08T15:11:24;30.15;;;13.93;;